• Join FlightAware (Why Join?)
  • Login
  • US Flag 
08:48PM EDT


 

Airport Tracker/Info


-or-


 

Live Flight TrackerFlight Track Log ✈ EZY2567 ✈ 22-Apr-2013 ✈ LIMC / MXP - GMMN / CMN

Flight Track Log - Related Links

Times and Time Zones

All times are in EDT time to prevent confusion due to time zone crossing. See the EZY2567 flight status page for this flight to view local times or setup timezone preferences in your user account.

Time Position Orientation Groundspeed Altitude Reporting Facility
EDT Latitude Longitude Course Direction KTS MPH feet Rate Location/Type
12:20AM 45.0785 7.7614 231° Southwest  Level Estimated
12:21AM 45.0166 7.6551 231° Southwest  Level Estimated
12:22AM 44.9547 7.5491 230° Southwest  Level Estimated
12:22AM 45.6080 8.7290 230° Southwest 165 190 1,600  Level FlightAware
12:22AM 45.5860 8.7330 173° South 164 189 2,800 2,160 Climbing FlightAware
12:23AM 45.5660 8.7370 172° South 172 198 3,600 1,620 Climbing FlightAware
12:23AM 45.5430 8.7270 197° South 200 230 4,300 1,080 Climbing FlightAware
12:24AM 45.5150 8.7040 210° Southwest 252 290 4,700 720 Climbing FlightAware
12:24AM 45.4860 8.6800 210° Southwest 298 343 5,000 1,620 Climbing FlightAware
12:24AM 45.4480 8.6490 210° Southwest 322 371 6,200 2,400 Climbing FlightAware
12:25AM 45.4170 8.6230 210° Southwest 337 388 7,200 2,820 Climbing FlightAware
12:25AM 45.3940 8.6060 207° Southwest 341 392 8,100 3,300 Climbing FlightAware
12:26AM 45.3520 8.5720 210° Southwest 345 397 9,700 3,000 Climbing FlightAware
12:26AM 45.2950 8.5270 209° Southwest 356 410 11,600 2,700 Climbing FlightAware
12:27AM 45.2310 8.4770 209° Southwest 368 423 13,600 2,460 Climbing FlightAware
12:28AM 45.1710 8.4290 209° Southwest 380 437 15,100 2,400 Climbing FlightAware
12:28AM 45.1100 8.3800 210° Southwest 386 444 16,800 2,280 Climbing FlightAware
12:29AM 45.0390 8.3240 209° Southwest 398 458 18,400 2,100 Climbing FlightAware
12:30AM 44.9750 8.2720 210° Southwest 407 468 19,800 2,100 Climbing FlightAware
12:31AM 44.8970 8.2110 209° Southwest 414 476 21,400 1,380 Climbing FlightAware
12:33AM 44.7771 7.9950 232° Southwest  Level Estimated
12:34AM 44.7169 7.8874 232° Southwest  Level Estimated
12:35AM 44.6570 7.7805 232° Southwest  Level Estimated
12:36AM 44.5970 7.6739 232° Southwest  Level Estimated
12:37AM 44.5369 7.5675 232° Southwest  Level Estimated
12:38AM 44.4768 7.4613 232° Southwest  Level Estimated
12:39AM 44.4165 7.3554 231° Southwest  Level Estimated
12:40AM 44.3561 7.2496 231° Southwest  Level Estimated
12:41AM 44.2956 7.1441 231° Southwest  Level Estimated
12:42AM 44.2350 7.0388 231° Southwest  Level Estimated
12:42AM 44.0190 6.6600 231° Southwest 456 525 37,000  Level FlightAware
12:43AM 43.9580 6.5400 235° Southwest 458 527 37,000  Level FlightAware
12:44AM 43.9090 6.4420 235° Southwest 464 534 37,000  Level FlightAware
12:44AM 43.8610 6.3450 236° Southwest 464 534 37,000  Level FlightAware
12:45AM 43.8070 6.2370 235° Southwest 466 536 37,000  Level FlightAware
12:46AM 43.7570 6.1380 235° Southwest 469 540 37,000 60 Level FlightAware
12:46AM 43.6980 6.0210 235° Southwest 467 537 37,100  Climbing FlightAware
12:47AM 43.6490 5.9240 235° Southwest 466 536 37,000 -120 Descending FlightAware
12:48AM 43.5940 5.8160 235° Southwest 464 534 37,000  Level FlightAware
12:48AM 43.5450 5.7210 235° Southwest 460 529 37,000  Level FlightAware
12:49AM 43.4970 5.6250 235° Southwest 458 527 37,000  Level FlightAware
12:50AM 43.4400 5.5150 235° Southwest 455 524 37,000  Level FlightAware
12:51AM 43.3920 5.4230 234° Southwest 452 520 37,000  Level FlightAware
12:51AM 43.3390 5.3200 235° Southwest 452 520 37,000  Level FlightAware
12:52AM 43.2960 5.2360 235° Southwest 452 520 37,000  Level FlightAware
12:53AM 43.2370 5.1230 234° Southwest 454 522 37,000  Level FlightAware
12:53AM 43.1870 5.0270 234° Southwest 455 524 37,000  Level FlightAware
12:54AM 43.1370 4.9320 234° Southwest 457 526 37,000  Level FlightAware
12:55AM 43.0930 4.8480 234° Southwest 458 527 37,000  Level FlightAware
12:55AM 43.0240 4.7390 229° Southwest 463 533 37,000  Level FlightAware
12:56AM 42.9600 4.6620 221° Southwest 465 535 37,000  Level FlightAware
12:57AM 42.8900 4.5760 222° Southwest 466 536 37,000 60 Level FlightAware
12:58AM 42.8250 4.4980 221° Southwest 464 534 37,100  Climbing FlightAware
12:58AM 42.7510 4.4100 221° Southwest 464 534 37,000 -120 Descending FlightAware
12:59AM 42.6880 4.3350 221° Southwest 465 535 37,000  Level FlightAware
01:00AM 42.6260 4.2610 221° Southwest 466 536 37,000  Level FlightAware
01:00AM 42.5510 4.1720 221° Southwest 467 537 37,000  Level FlightAware
01:01AM 42.4880 4.0970 221° Southwest 468 539 37,000 60 Level FlightAware
01:02AM 42.4270 4.0260 221° Southwest 467 537 37,100 60 Climbing FlightAware
01:02AM 42.3460 3.9300 221° Southwest 465 535 37,100 -120 Level FlightAware
01:03AM 42.2820 3.8540 221° Southwest 463 533 37,000 -120 Descending FlightAware
01:04AM 42.2070 3.7670 221° Southwest 462 532 37,000  Level FlightAware
01:05AM 42.1450 3.6900 223° Southwest 459 528 37,000  Level FlightAware
01:05AM 42.0870 3.5930 231° Southwest 451 519 37,000  Level FlightAware
01:06AM 42.0450 3.4970 240° Southwest 444 511 37,000  Level FlightAware
01:07AM 42.0060 3.3830 245° Southwest 443 510 37,000  Level FlightAware
01:07AM 41.9720 3.2820 246° West 444 511 37,000  Level FlightAware
01:08AM 41.9320 3.1860 241° Southwest 451 519 37,000  Level FlightAware
01:09AM 41.8760 3.0840 234° Southwest 456 525 37,000  Level FlightAware
01:09AM 41.8240 2.9930 233° Southwest 456 525 37,000  Level FlightAware
01:10AM 41.7720 2.9040 232° Southwest 457 526 37,000  Level FlightAware
01:11AM 41.7150 2.8050 232° Southwest 458 527 37,000  Level FlightAware
01:12AM 41.6640 2.7180 232° Southwest 457 526 37,000  Level FlightAware
01:12AM 41.6040 2.6140 232° Southwest 457 526 37,000  Level FlightAware
01:13AM 41.5530 2.5250 233° Southwest 456 525 37,000  Level FlightAware
01:14AM 41.4950 2.4280 231° Southwest 455 524 37,000  Level FlightAware
01:14AM 41.4430 2.3390 232° Southwest 455 524 37,000  Level FlightAware
01:15AM 41.3920 2.2520 232° Southwest 455 524 37,000  Level FlightAware
01:16AM 41.3320 2.1500 232° Southwest 457 526 37,000  Level FlightAware
01:16AM 41.2770 2.0630 230° Southwest 461 531 37,000  Level FlightAware
01:17AM 41.2140 1.9700 228° Southwest 463 533 37,000  Level FlightAware
01:18AM 41.1560 1.8850 228° Southwest 462 532 37,000  Level FlightAware
01:19AM 41.0990 1.8010 228° Southwest 460 529 37,000  Level FlightAware
01:19AM 41.0340 1.7060 228° Southwest 463 533 37,000  Level FlightAware
01:20AM 40.9790 1.6250 228° Southwest 462 532 37,000  Level FlightAware
01:21AM 40.9200 1.5390 228° Southwest 463 533 37,000  Level FlightAware
01:21AM 40.8570 1.4470 228° Southwest 463 533 37,000  Level FlightAware
01:22AM 40.7980 1.3620 227° Southwest 465 535 37,000  Level FlightAware
01:23AM 40.7410 1.2790 228° Southwest 467 537 37,000  Level FlightAware
01:23AM 40.6740 1.1820 228° Southwest 467 537 37,000 60 Level FlightAware
01:24AM 40.6090 1.0890 227° Southwest 467 537 37,100 60 Climbing FlightAware
01:25AM 40.5510 1.0060 227° Southwest 464 534 37,100 -120 Level FlightAware
01:26AM 40.4940 0.9240 228° Southwest 462 532 37,000 -120 Descending FlightAware
01:26AM 40.4280 0.8290 228° Southwest 460 529 37,000  Level FlightAware
01:27AM 40.3690 0.7460 227° Southwest 459 528 37,000  Level FlightAware
01:28AM 40.3110 0.6630 228° Southwest 460 529 37,000  Level FlightAware
01:28AM 40.2490 0.5760 227° Southwest 462 532 37,000  Level FlightAware
01:29AM 40.1890 0.4920 227° Southwest 466 536 37,000  Level FlightAware
01:30AM 40.1220 0.3960 228° Southwest 469 540 37,000 60 Level FlightAware
01:30AM 40.0630 0.3150 226° Southwest 472 543 37,100 60 Climbing FlightAware
01:31AM 40.0030 0.2300 227° Southwest 472 543 37,100  Level FlightAware
01:32AM 39.9370 0.1390 227° Southwest 470 541 37,100  Level FlightAware
01:33AM 39.8780 0.0580 227° Southwest 468 539 37,100 -120 Level FlightAware
01:33AM 39.8130 -0.0330 227° Southwest 465 535 37,000 -120 Descending FlightAware
01:34AM 39.7510 -0.1170 226° Southwest 463 533 37,000  Level FlightAware
01:35AM 39.6920 -0.1990 227° Southwest 461 531 37,000  Level FlightAware
01:35AM 39.6300 -0.2860 227° Southwest 460 529 37,000  Level FlightAware
01:36AM 39.5700 -0.3670 226° Southwest 461 531 37,000  Level FlightAware
01:37AM 39.5030 -0.4590 227° Southwest 464 534 37,000  Level FlightAware
01:37AM 39.4490 -0.5440 231° Southwest 462 532 37,000  Level FlightAware
01:38AM 39.3920 -0.6430 233° Southwest 466 536 37,000  Level FlightAware
01:39AM 39.3400 -0.7310 233° Southwest 470 541 37,000 60 Level FlightAware
01:40AM 39.2880 -0.8190 233° Southwest 471 542 37,100 60 Climbing FlightAware
01:40AM 39.2260 -0.9240 233° Southwest 470 541 37,100 -120 Level FlightAware
01:41AM 39.1740 -1.0110 232° Southwest 469 540 37,000 -120 Descending FlightAware
01:42AM 39.1160 -1.1100 233° Southwest 469 540 37,000  Level FlightAware
01:42AM 39.0620 -1.1990 232° Southwest 468 539 37,000  Level FlightAware
01:43AM 39.0130 -1.2810 232° Southwest 467 537 37,000  Level FlightAware
01:44AM 38.9500 -1.3860 232° Southwest 467 537 37,000  Level FlightAware
01:44AM 38.8970 -1.4740 232° Southwest 468 539 37,000  Level FlightAware
01:45AM 38.8440 -1.5620 232° Southwest 469 540 37,000  Level FlightAware
01:46AM 38.7870 -1.6480 230° Southwest 475 547 37,000  Level FlightAware
01:47AM 38.7220 -1.7290 224° Southwest 475 547 37,000  Level FlightAware
01:47AM 38.6510 -1.8170 224° Southwest 476 548 37,000  Level FlightAware
01:48AM 38.5880 -1.8960 224° Southwest 477 549 37,000  Level FlightAware
01:49AM 38.5180 -1.9830 224° Southwest 477 549 37,000  Level FlightAware
01:49AM 38.4600 -2.0550 224° Southwest 475 547 37,000  Level FlightAware
01:50AM 38.3880 -2.1430 224° Southwest 473 544 37,000  Level FlightAware
01:51AM 38.3180 -2.2310 225° Southwest 473 544 37,000  Level FlightAware
01:51AM 38.2720 -2.2870 224° Southwest 472 543 37,000  Level FlightAware
01:52AM 38.1870 -2.3900 224° Southwest 474 545 37,000  Level FlightAware
01:53AM 38.1320 -2.4580 224° Southwest 475 547 37,000  Level FlightAware
01:54AM 38.0560 -2.5500 224° Southwest 478 550 37,000  Level FlightAware
01:54AM 37.9900 -2.6290 223° Southwest 478 550 37,000  Level FlightAware
01:55AM 37.9350 -2.6940 223° Southwest 478 550 37,000  Level FlightAware
01:56AM 37.8800 -2.7590 223° Southwest 478 550 37,000  Level FlightAware
01:56AM 37.8250 -2.8240 223° Southwest 478 550 37,000  Level FlightAware
01:57AM 37.7700 -2.8890 223° Southwest 478 550 37,000  Level FlightAware
01:58AM 37.6470 -3.0440 225° Southwest 479 551 37,000  Level FlightAware
01:58AM 37.5840 -3.1190 223° Southwest 478 550 37,000  Level FlightAware
01:59AM 37.5180 -3.1980 224° Southwest 478 550 37,000  Level FlightAware
02:00AM 37.4480 -3.2820 224° Southwest 477 549 37,000  Level FlightAware
02:01AM 37.3840 -3.3580 223° Southwest 476 548 37,000  Level FlightAware
02:01AM 37.3110 -3.4440 223° Southwest 478 550 37,000  Level FlightAware
02:02AM 37.2470 -3.5200 223° Southwest 479 551 37,000  Level FlightAware
02:03AM 37.1760 -3.6020 223° Southwest 479 551 37,000  Level FlightAware
02:03AM 37.1110 -3.6800 224° Southwest 479 551 37,000  Level FlightAware
02:04AM 37.0450 -3.7560 223° Southwest 479 551 37,000  Level FlightAware
02:05AM 36.9910 -3.8190 223° Southwest 479 551 37,000  Level FlightAware
02:05AM 36.9150 -3.9080 223° Southwest 478 550 37,000  Level FlightAware
02:06AM 36.8460 -3.9880 223° Southwest 471 542 37,000  Level FlightAware
02:07AM 36.7740 -4.0720 223° Southwest 471 542 37,000  Level FlightAware
02:08AM 36.7080 -4.1480 223° Southwest 470 541 37,000  Level FlightAware
02:08AM 36.6350 -4.2320 223° Southwest 469 540 37,000  Level FlightAware
02:09AM 36.5780 -4.2980 223° Southwest 468 539 37,000  Level FlightAware
02:10AM 36.5050 -4.3820 223° Southwest 466 536 37,000  Level FlightAware
02:10AM 36.4330 -4.4650 223° Southwest 467 537 37,000  Level FlightAware
02:11AM 36.3680 -4.5390 223° Southwest 467 537 37,000  Level FlightAware
02:12AM 36.2960 -4.6200 222° Southwest 465 535 37,000  Level FlightAware
02:12AM 36.2320 -4.6930 223° Southwest 465 535 37,000  Level FlightAware
02:13AM 36.1680 -4.7660 223° Southwest 464 534 37,000  Level FlightAware
02:14AM 36.0950 -4.8480 222° Southwest 463 533 37,000  Level FlightAware
02:15AM 36.0330 -4.9190 223° Southwest 462 532 37,000  Level FlightAware
02:15AM 35.9600 -5.0010 222° Southwest 461 531 37,000  Level FlightAware
02:16AM 35.8960 -5.0720 222° Southwest 460 529 37,000  Level FlightAware
02:17AM 35.8340 -5.1420 222° Southwest 467 537 37,000  Level FlightAware
02:17AM 35.7540 -5.2160 217° Southwest 463 533 37,000  Level FlightAware
02:18AM 35.6840 -5.2800 217° Southwest 464 534 37,000  Level FlightAware
02:19AM 35.6060 -5.3520 217° Southwest 465 535 37,000  Level FlightAware
02:19AM 35.5340 -5.4130 215° Southwest 474 545 37,000  Level FlightAware
02:20AM 35.4590 -5.4710 212° Southwest 474 545 37,000  Level FlightAware
02:21AM 35.3780 -5.5360 213° Southwest 466 536 37,000  Level FlightAware
02:22AM 35.3040 -5.5960 213° Southwest 464 534 37,000  Level FlightAware
02:22AM 35.2220 -5.6610 213° Southwest 463 533 37,000  Level FlightAware
02:23AM 35.1490 -5.7190 213° Southwest 461 531 37,000  Level FlightAware
02:24AM 35.0760 -5.7780 213° Southwest 461 531 37,000  Level FlightAware
02:24AM 34.9950 -5.8420 213° Southwest 465 535 37,000  Level FlightAware
02:25AM 34.9240 -5.8980 213° Southwest 463 533 37,000  Level FlightAware
02:26AM 34.8450 -5.9610 213° Southwest 460 529 37,000  Level FlightAware
02:26AM 34.7720 -6.0190 213° Southwest 460 529 37,000 -720 Level FlightAware
02:27AM 34.7000 -6.0760 213° Southwest 461 531 36,100 -1,320 Descending FlightAware
02:28AM 34.6380 -6.1250 213° Southwest 457 526 35,400 -1,140 Descending FlightAware
02:29AM 34.5500 -6.1940 213° Southwest 447 514 34,500 -1,140 Descending FlightAware
02:29AM 34.4700 -6.2570 213° Southwest 463 533 33,600 -1,140 Descending FlightAware
02:30AM 34.4220 -6.2940 212° Southwest 460 529 33,100 -780 Descending FlightAware
02:31AM 34.3310 -6.3650 213° Southwest 460 529 32,600 -360 Descending FlightAware
02:31AM 34.2710 -6.4130 213° Southwest 460 529 32,600  Level FlightAware
02:32AM 34.2100 -6.4600 213° Southwest 460 529 32,600  Level FlightAware
02:33AM 34.1490 -6.5080 213° Southwest 460 529 32,600  Level FlightAware
02:33AM 34.0740 -6.5680 214° Southwest 460 529 32,600  Level FlightAware
02:34AM 34.0130 -6.6150 213° Southwest 460 529 32,600  Level FlightAware
02:35AM 33.9520 -6.6630 213° Southwest 460 529 32,600  Level FlightAware
02:35AM 33.8910 -6.7100 213° Southwest 460 529 32,600  Level FlightAware
02:36AM 33.8310 -6.7580 214° Southwest 460 529 32,600  Level FlightAware
02:37AM 33.7550 -6.8170 213° Southwest 460 529 32,600  Level FlightAware
02:38AM 33.6940 -6.8640 213° Southwest 460 529 32,600  Level FlightAware
02:38AM 33.6340 -6.9120 214° Southwest 460 529 32,600  Level FlightAware
02:39AM 33.5730 -6.9590 213° Southwest 460 529 32,600  Level FlightAware
02:40AM 33.5120 -7.0060 213° Southwest 460 529 32,600 -10,860 Level FlightAware
02:40AM 33.3860 -7.1810 229° Southwest 9,300 -15,720 Descending FlightAware
02:41AM 33.3420 -7.2340 225° Southwest 378 435 9,100 -240 Descending FlightAware
02:41AM 33.3320 -7.2460 225° Southwest 378 435 9,100  Level FlightAware
02:42AM 33.3000 -7.2840 225° Southwest 378 435 9,100  Level FlightAware
02:42AM 33.2690 -7.3220 226° Southwest 378 435 9,100  Level FlightAware
02:45AM 33.3680 -7.5880 294° West  Level Estimated
02:46AM 33.3680 -7.5880 257° West  Level Estimated
02:47AM 33.3680 -7.5880 257° West  Level Estimated
02:48AM 33.3680 -7.5880 257° West  Level Estimated
02:49AM 33.3680 -7.5880 257° West  Level Estimated
02:50AM 33.3680 -7.5880 257° West  Level Estimated
02:51AM 33.3680 -7.5880 257° West  Level Estimated
02:52AM 33.3680 -7.5880 257° West  Level Estimated
02:53AM 33.3680 -7.5880 257° West  Level Estimated
02:54AM 33.3680 -7.5880 257° West  Level Estimated
02:55AM 33.3680 -7.5880 257° West  Level Estimated
02:56AM 33.3680 -7.5880 257° West  Level Estimated
02:57AM 33.3680 -7.5880 257° West  Level Estimated
02:58AM 33.3680 -7.5880 257° West  Level Estimated
02:59AM 33.3680 -7.5880 257° West  Level Estimated
03:00AM 33.3680 -7.5880 257° West  Level Estimated
03:01AM 33.3680 -7.5880 257° West  Level Estimated
03:02AM 33.3680 -7.5880 257° West  Level Estimated
03:03AM 33.3680 -7.5880 257° West  Level Estimated